Decoded Metar for LELC (SAN JAVIER in SPAIN) (IATA:MJV) | Meteo·Mobile Aviation Weather
aviador You're here:

LELC Decoded Metar

SAN JAVIER in SPAIN
Report Time2019-07-24 05:00:00
UTC Time2019-07-24 05:17:30
Flight Rules vfr VFR
Wind360° at 07 kt
W.Decomp.*RWY 05: 4.6 kt HW 5.3 kt LCW
Visibility9999 m
Phenomena:N/A
Clouds:N/A
Expected CloudBase > 4,000 ft AGL from Temp-Dew spread
CeilingNone
Temp24°C (ISA +9)
Dew Point14°C (54% RH)
AAT22.8°C
QNH1014 hPa
Density Alt1,237 ft
Elevation10 ft
Report Wrong Elevation
Raw Report
LELC 240500Z 36007KT CAVOK 24/14 Q1014 NOSIG=

Extra information for LELC:More info

Metar Taf Metar & Taf Last 4 Metars F.Rules Stats Wind Profile Meteogram Temp Stats Airport Information Weather charts Add Link Nearby VenuesMetar ALERT Operation Metar Decoded Social comments